Time;durP1;ratioP1;P1;durP2;ratioP2;P2;SDS_P1;SDS_P2;PMS_P1;PMS_P2;Temp;Humidity;BMP_temperature;BMP_pressure;BME280_temperature;BME280_humidity;BME280_pressure;Samples;Min_cycle;Max_cycle;Signal;HPM_P1;HPM_P2
2024/02/16 00:01:37;;;;;;;5.65;1.75;;;13.50;99.90;;;13.24;63.67;99928.66;5039401;28;20037;-84
2024/02/16 00:04:04;;;;;;;10.68;2.28;;;13.50;99.90;;;13.25;63.60;99921.44;5040498;28;20052;-84
2024/02/16 00:06:32;;;;;;;5.18;1.80;;;13.50;99.90;;;13.26;64.10;99928.41;5040666;28;20129;-85
2024/02/16 00:09:00;;;;;;;5.00;1.90;;;13.40;99.90;;;13.26;63.44;99929.22;5040450;28;20084;-85
2024/02/16 00:11:28;;;;;;;5.53;1.80;;;13.40;99.90;;;13.28;63.47;99921.78;5058096;28;20049;-84
2024/02/16 00:13:56;;;;;;;8.00;2.30;;;13.40;99.90;;;13.27;63.13;99924.69;5042454;28;20109;-85
2024/02/16 00:16:25;;;;;;;9.40;2.25;;;13.40;99.90;;;13.28;63.45;99926.31;5041118;28;20065;-85
2024/02/16 00:18:53;;;;;;;5.55;2.00;;;13.40;99.90;;;13.29;63.40;99920.72;5041873;28;20103;-85
2024/02/16 00:21:20;;;;;;;4.50;1.80;;;13.40;99.90;;;13.27;63.33;99930.84;5042011;28;20119;-85
2024/02/16 00:23:48;;;;;;;7.97;2.17;;;13.40;99.90;;;13.25;63.46;99932.97;5040555;28;20041;-85
2024/02/16 00:26:15;;;;;;;5.53;1.90;;;13.40;99.90;;;13.25;63.33;99940.19;5042255;28;20128;-85
2024/02/16 00:28:43;;;;;;;4.25;1.75;;;13.40;99.90;;;13.27;63.18;99935.38;5042415;28;20458;-83
2024/02/16 00:31:10;;;;;;;5.93;1.85;;;13.50;99.90;;;13.28;63.40;99937.84;5024647;28;20132;-85
2024/02/16 00:33:39;;;;;;;5.35;1.77;;;13.50;99.90;;;13.29;63.40;99934.09;5023303;28;20099;-84
2024/02/16 00:36:09;;;;;;;7.95;1.90;;;13.50;99.90;;;13.30;62.89;99940.28;5057626;28;20048;-85
2024/02/16 00:38:37;;;;;;;5.65;2.10;;;13.50;99.90;;;13.29;62.83;99936.78;5042903;28;20049;-85
2024/02/16 00:41:05;;;;;;;6.15;1.90;;;13.50;99.90;;;13.31;63.01;99944.56;5042712;28;20065;-85
2024/02/16 00:43:32;;;;;;;6.13;1.92;;;13.50;99.90;;;13.32;63.19;99943.50;5041775;28;20037;-85
2024/02/16 00:46:00;;;;;;;5.30;2.00;;;13.50;99.90;;;13.33;62.72;99932.56;5039745;28;20113;-85
2024/02/16 00:48:29;;;;;;;4.88;1.90;;;13.50;99.90;;;13.35;62.77;99943.03;5040415;28;20049;-85
2024/02/16 00:50:58;;;;;;;5.63;1.63;;;13.50;99.90;;;13.33;62.49;99943.28;5027877;28;20469;-84
2024/02/16 00:53:26;;;;;;;5.35;2.40;;;13.50;99.90;;;13.35;62.82;99941.16;5022326;28;20069;-84
2024/02/16 00:55:53;;;;;;;4.45;1.90;;;13.60;99.90;;;13.37;62.62;99949.78;5036236;28;20052;-85
2024/02/16 00:58:21;;;;;;;6.85;2.13;;;13.60;99.90;;;13.36;61.99;99939.28;5020511;28;20045;-85
2024/02/16 01:00:48;;;;;;;5.65;2.17;;;13.60;99.90;;;13.41;62.67;99947.41;5037230;28;20058;-85
2024/02/16 01:03:16;;;;;;;4.95;1.83;;;13.60;99.90;;;13.44;62.33;99946.13;5038969;28;20037;-85
2024/02/16 01:05:43;;;;;;;7.68;2.22;;;13.70;99.90;;;13.40;62.48;99949.28;5024048;28;20122;-85
2024/02/16 01:08:13;;;;;;;3.92;1.50;;;13.60;99.90;;;13.42;62.77;99942.88;5038366;28;20467;-85
2024/02/16 01:10:40;;;;;;;5.03;2.08;;;13.60;99.90;;;13.42;62.45;99943.69;5021335;28;20057;-85
2024/02/16 01:13:08;;;;;;;7.32;2.03;;;13.60;99.90;;;13.42;62.02;99942.88;5020111;28;20053;-85
2024/02/16 01:15:36;;;;;;;4.80;1.70;;;13.60;99.90;;;13.44;62.16;99941.59;5021029;28;20567;-85
2024/02/16 01:18:05;;;;;;;5.68;1.85;;;13.60;99.90;;;13.43;62.42;99933.78;5037663;28;20394;-85
2024/02/16 01:20:32;;;;;;;4.82;1.88;;;13.60;99.90;;;13.41;61.98;99936.69;5020332;28;20453;-84
2024/02/16 01:23:00;;;;;;;5.85;2.00;;;13.60;99.90;;;13.44;62.64;99935.41;5020845;28;20076;-85
2024/02/16 01:25:29;;;;;;;5.53;2.10;;;13.60;99.90;;;13.43;62.94;99933.78;5020819;28;20046;-85
2024/02/16 01:27:57;;;;;;;6.50;2.03;;;13.50;99.90;;;13.42;62.08;99935.66;5037487;28;20112;-85
2024/02/16 01:30:24;;;;;;;9.25;1.80;;;13.50;99.90;;;13.42;62.08;99929.47;5022014;28;20515;-85
2024/02/16 01:32:51;;;;;;;4.88;1.92;;;13.60;99.90;;;13.43;62.55;99923.09;5036472;28;20462;-85
2024/02/16 01:35:19;;;;;;;6.97;1.77;;;13.60;99.90;;;13.44;62.77;99930.88;5021023;28;20080;-85
2024/02/16 01:37:47;;;;;;;5.47;1.92;;;13.50;99.90;;;13.44;62.69;99930.06;5056905;28;20115;-85
2024/02/16 01:40:16;;;;;;;4.05;2.00;;;13.50;99.90;;;13.46;62.88;99927.94;5039728;28;20053;-84
2024/02/16 01:42:47;;;;;;;5.03;1.80;;;13.50;99.90;;;13.46;62.38;99926.06;5039705;28;20054;-84
2024/02/16 01:45:16;;;;;;;4.82;1.90;;;13.50;99.90;;;13.45;62.75;99921.75;5040597;28;20045;-85
2024/02/16 01:47:46;;;;;;;5.93;1.85;;;13.50;99.90;;;13.45;62.69;99905.69;5039355;28;20045;-85
2024/02/16 01:50:16;;;;;;;5.10;2.08;;;13.50;99.90;;;13.45;62.17;99915.59;5041053;28;20041;-84
2024/02/16 01:52:44;;;;;;;7.75;2.08;;;13.50;99.90;;;13.43;62.63;99912.38;5056850;28;20539;-85
2024/02/16 01:55:13;;;;;;;6.78;2.10;;;13.50;99.90;;;13.45;62.86;99911.06;5055806;28;20073;-85
2024/02/16 01:57:43;;;;;;;5.05;1.85;;;13.50;99.90;;;13.46;63.24;99911.88;5041479;28;20061;-85
2024/02/16 02:00:17;;;;;;;6.40;2.17;;;13.50;99.90;;;13.45;62.90;99910.25;5039369;28;20588;-84
2024/02/16 02:02:47;;;;;;;4.32;1.85;;;13.50;99.90;;;13.45;62.94;99904.88;5043325;28;20076;-85
2024/02/16 02:05:15;;;;;;;7.22;1.98;;;13.50;99.90;;;13.45;62.72;99900.34;5044358;28;20045;-85
2024/02/16 02:07:43;;;;;;;4.47;1.90;;;13.50;99.90;;;13.47;62.71;99908.13;5044689;28;20068;-84
2024/02/16 02:10:12;;;;;;;3.72;1.80;;;13.50;99.90;;;13.45;62.73;99912.91;5042738;28;20068;-85
2024/02/16 02:12:42;;;;;;;4.35;1.90;;;13.50;99.90;;;13.44;62.92;99897.91;5059993;28;20048;-85
2024/02/16 02:15:12;;;;;;;4.93;2.20;;;13.50;99.90;;;13.45;62.98;99903.00;5044533;28;20042;-85
2024/02/16 02:17:39;;;;;;;4.78;1.95;;;13.50;99.90;;;13.45;62.86;99897.66;5044569;28;20417;-85
2024/02/16 02:20:10;;;;;;;6.07;2.20;;;13.50;99.90;;;13.46;62.89;99898.47;5026055;28;20065;-85
2024/02/16 02:22:40;;;;;;;6.15;2.28;;;13.50;99.90;;;13.45;62.87;99894.97;5044067;28;20055;-85
2024/02/16 02:25:10;;;;;;;9.27;2.10;;;13.50;99.90;;;13.45;62.87;99894.16;5026082;28;20046;-84
2024/02/16 02:27:38;;;;;;;5.75;2.10;;;13.50;99.90;;;13.44;63.17;99882.66;5044712;28;20038;-85
2024/02/16 02:30:08;;;;;;;4.57;1.92;;;13.50;99.90;;;13.42;62.86;99876.75;5043742;28;20034;-85
2024/02/16 02:32:37;;;;;;;5.63;2.10;;;13.50;99.90;;;13.43;63.23;99885.56;5042194;28;20126;-85
2024/02/16 02:35:05;;;;;;;6.05;2.13;;;13.50;99.90;;;13.44;63.01;99879.97;5041020;28;20073;-85
2024/02/16 02:37:33;;;;;;;6.20;1.88;;;13.50;99.90;;;13.42;63.23;99881.25;5042813;28;20049;-85
2024/02/16 02:40:02;;;;;;;6.45;1.98;;;13.50;99.90;;;13.42;63.03;99890.13;5041400;28;20402;-85
2024/02/16 02:42:30;;;;;;;4.30;2.15;;;13.50;99.90;;;13.46;62.10;99880.53;5041812;28;20046;-85
2024/02/16 02:44:58;;;;;;;5.18;2.10;;;13.50;99.90;;;13.49;63.06;99884.59;5008596;28;20107;-85
2024/02/16 02:47:25;;;;;;;5.85;2.30;;;13.60;99.90;;;13.47;62.82;99892.88;5057757;28;20046;-85
2024/02/16 02:49:53;;;;;;;4.25;1.65;;;13.50;99.90;;;13.46;63.02;99891.25;5043900;28;20041;-85
2024/02/16 02:52:20;;;;;;;4.22;1.80;;;13.60;99.90;;;13.48;63.14;99883.78;5042447;28;20053;-85
2024/02/16 02:54:48;;;;;;;3.60;1.70;;;13.50;99.90;;;13.46;63.26;99880.53;5058123;28;20038;-85
2024/02/16 02:57:17;;;;;;;5.00;2.00;;;13.50;99.90;;;13.47;62.98;99881.34;5042554;28;20042;-85
2024/02/16 02:59:45;;;;;;;5.30;2.10;;;13.50;99.90;;;13.49;63.13;99880.03;5043806;28;20045;-85
2024/02/16 03:02:13;;;;;;;6.85;2.00;;;13.50;99.90;;;13.48;63.20;99862.34;5043129;28;20061;-85
2024/02/16 03:04:40;;;;;;;6.50;2.00;;;13.50;99.90;;;13.48;63.06;99858.88;5043193;28;20064;-85
2024/02/16 03:07:08;;;;;;;9.68;2.28;;;13.50;99.90;;;13.45;62.92;99857.47;5042995;28;20045;-85
2024/02/16 03:09:35;;;;;;;5.22;2.03;;;13.50;99.90;;;13.46;62.95;99860.97;5043524;28;20489;-85
2024/02/16 03:12:02;;;;;;;5.40;1.95;;;13.50;99.90;;;13.46;62.80;99859.09;5042368;28;20056;-85
2024/02/16 03:14:31;;;;;;;6.82;1.65;;;13.50;99.90;;;13.48;63.11;99857.00;5042797;28;20111;-85
2024/02/16 03:16:58;;;;;;;4.35;2.00;;;13.50;99.90;;;13.46;63.35;99863.66;5043824;28;20049;-85
2024/02/16 03:19:27;;;;;;;4.88;1.80;;;13.50;99.90;;;13.45;63.36;99857.47;5025072;28;20053;-85
2024/02/16 03:21:54;;;;;;;5.32;2.00;;;13.50;99.90;;;13.46;63.39;99856.41;4990916;28;20052;-85
2024/02/16 03:24:22;;;;;;;3.90;1.85;;;13.50;99.90;;;13.45;63.81;99860.16;5041118;28;20096;-85
2024/02/16 03:26:49;;;;;;;7.22;2.10;;;13.50;99.90;;;13.42;63.93;99855.31;5041750;28;20497;-85
2024/02/16 03:29:17;;;;;;;5.90;2.10;;;13.50;99.90;;;13.40;63.23;99847.50;5056976;28;20113;-85
2024/02/16 03:31:45;;;;;;;4.78;1.98;;;13.50;99.90;;;13.42;62.88;99851.78;5043398;28;20049;-85
2024/02/16 03:34:13;;;;;;;5.45;1.90;;;13.50;99.90;;;13.45;63.31;99854.81;5057820;28;20068;-85
2024/02/16 03:36:40;;;;;;;4.85;2.08;;;13.60;99.90;;;13.44;63.58;99855.06;5048194;28;20561;-85
2024/02/16 03:39:08;;;;;;;7.07;2.33;;;13.50;99.90;;;13.42;63.21;99849.09;5047228;28;20095;-85
2024/02/16 03:41:36;;;;;;;4.10;1.90;;;13.50;99.90;;;13.43;63.48;99856.13;5048588;28;20052;-84
2024/02/16 03:44:03;;;;;;;4.32;2.22;;;13.50;99.90;;;13.40;63.93;99858.22;5064875;28;20048;-85
2024/02/16 03:46:31;;;;;;;3.53;1.83;;;13.50;99.90;;;13.39;63.50;99859.28;5065045;28;20041;-85
2024/02/16 03:49:00;;;;;;;10.23;2.00;;;13.50;99.90;;;13.38;63.99;99857.66;5064460;28;20390;-85
2024/02/16 03:51:27;;;;;;;4.45;1.60;;;13.50;99.90;;;13.36;63.72;99854.38;5049956;28;20117;-85
2024/02/16 03:53:56;;;;;;;7.68;2.22;;;13.50;99.90;;;13.37;64.02;99855.19;5048114;28;20049;-85
2024/02/16 03:56:23;;;;;;;7.32;2.03;;;13.50;99.90;;;13.34;63.92;99855.72;5051919;28;20500;-85
2024/02/16 03:58:52;;;;;;;5.80;2.28;;;13.50;99.90;;;13.34;63.69;99858.38;5048153;28;20053;-85
2024/02/16 04:01:19;;;;;;;7.10;2.47;;;13.50;99.90;;;13.35;64.01;99860.81;5049364;28;20061;-85
2024/02/16 04:03:47;;;;;;;5.50;2.20;;;13.50;99.90;;;13.31;64.06;99854.31;5046242;28;20120;-85
2024/02/16 04:06:15;;;;;;;5.03;2.00;;;13.50;99.90;;;13.29;63.85;99861.78;5048528;28;20448;-85
2024/02/16 04:08:43;;;;;;;4.20;1.98;;;13.40;99.90;;;13.32;63.87;99852.44;5048789;28;20041;-85
2024/02/16 04:11:15;;;;;;;7.28;2.20;;;13.50;99.90;;;13.34;64.22;99853.03;5048710;28;20460;-85
2024/02/16 04:13:42;;;;;;;6.35;2.33;;;13.50;99.90;;;13.34;64.58;99851.16;5031625;28;20064;-85
2024/02/16 04:16:09;;;;;;;5.70;2.20;;;13.50;99.90;;;13.33;64.30;99848.72;5047349;28;20389;-85
2024/02/16 04:18:37;;;;;;;4.28;1.73;;;13.50;99.90;;;13.33;64.23;99848.72;5030683;28;20045;-85
2024/02/16 04:21:05;;;;;;;8.00;1.98;;;13.50;99.90;;;13.37;64.52;99855.19;5046208;28;20402;-85
2024/02/16 04:23:34;;;;;;;6.13;2.05;;;13.50;99.90;;;13.37;64.35;99845.31;5046998;28;20046;-85
2024/02/16 04:26:06;;;;;;;8.55;2.33;;;13.50;99.90;;;13.35;64.47;99847.41;5063012;28;20091;-85
2024/02/16 04:28:35;;;;;;;4.55;1.83;;;13.50;99.90;;;13.37;64.60;99853.34;5047641;28;20052;-85
2024/02/16 04:31:03;;;;;;;6.50;2.28;;;13.50;99.90;;;13.36;64.55;99854.38;5048799;28;20056;-85
2024/02/16 04:33:30;;;;;;;6.75;2.08;;;13.50;99.90;;;13.37;64.89;99850.69;5047643;28;20049;-85
2024/02/16 04:35:58;;;;;;;6.47;2.05;;;13.50;99.90;;;13.38;64.83;99852.31;5047619;28;20562;-85
2024/02/16 04:38:25;;;;;;;4.18;2.10;;;13.50;99.90;;;13.35;64.82;99852.78;5048367;28;20046;-85
2024/02/16 04:40:54;;;;;;;7.18;2.20;;;13.50;99.90;;;13.38;65.06;99852.31;5047486;28;20041;-85
2024/02/16 04:43:22;;;;;;;5.90;2.05;;;13.50;99.90;;;13.38;64.47;99856.84;5048283;28;20042;-85
2024/02/16 04:45:50;;;;;;;6.68;2.35;;;13.50;99.90;;;13.37;64.54;99873.94;5014447;28;20467;-85
2024/02/16 04:48:17;;;;;;;5.75;2.00;;;13.50;99.90;;;13.38;64.84;99862.19;5058685;28;20100;-85
2024/02/16 04:50:44;;;;;;;10.00;2.20;;;13.50;99.90;;;13.38;64.68;99868.38;5044905;28;20041;-85
2024/02/16 04:53:12;;;;;;;6.03;1.88;;;13.50;99.90;;;13.40;64.89;99866.25;5057881;28;20065;-85
2024/02/16 04:55:39;;;;;;;8.00;2.72;;;13.50;99.90;;;13.35;64.99;99860.81;5042861;28;20501;-85
2024/02/16 04:58:09;;;;;;;6.40;2.15;;;13.50;99.90;;;13.33;65.03;99865.63;5043671;28;20484;-85
2024/02/16 05:00:41;;;;;;;5.57;1.90;;;13.50;99.90;;;13.34;65.43;99867.22;5042978;28;20105;-85
2024/02/16 05:03:10;;;;;;;5.25;2.10;;;13.50;99.90;;;13.31;65.42;99867.72;5042076;28;20142;-85
2024/02/16 05:05:38;;;;;;;6.07;2.15;;;13.50;99.90;;;13.29;65.32;99869.81;5041302;28;20041;-85
2024/02/16 05:08:07;;;;;;;10.00;2.40;;;13.40;99.90;;;13.28;65.39;99870.88;5043193;28;20128;-85
2024/02/16 05:10:34;;;;;;;6.05;2.15;;;13.40;99.90;;;13.30;65.55;99868.78;5041008;28;20049;-84
2024/02/16 05:13:01;;;;;;;4.75;1.95;;;13.40;99.90;;;13.29;65.56;99869.81;5040533;28;20045;-85
2024/02/16 05:15:31;;;;;;;5.55;1.98;;;13.40;99.90;;;13.26;66.05;99869.50;5041657;28;20105;-85
2024/02/16 05:17:59;;;;;;;5.03;2.20;;;13.40;99.90;;;13.22;66.35;99871.84;5056225;28;20153;-86
2024/02/16 05:20:28;;;;;;;5.80;2.00;;;13.40;99.90;;;13.26;66.40;99885.56;5021368;28;20041;-85
2024/02/16 05:22:56;;;;;;;6.18;2.00;;;13.40;99.90;;;13.22;66.20;99871.84;5038391;28;20140;-85
2024/02/16 05:25:24;;;;;;;5.45;2.20;;;13.40;99.90;;;13.23;66.44;99870.81;5039543;28;20049;-85
2024/02/16 05:27:51;;;;;;;6.18;2.13;;;13.40;99.90;;;13.22;66.63;99869.16;5021974;28;20105;-85
2024/02/16 05:30:19;;;;;;;8.40;2.38;;;13.40;99.90;;;13.20;66.63;99871.25;5039263;28;20093;-85
2024/02/16 05:32:48;;;;;;;6.15;2.15;;;13.40;99.90;;;13.20;66.81;99865.09;5038451;28;20060;-85
2024/02/16 05:35:16;;;;;;;9.77;2.58;;;13.40;99.90;;;13.21;67.07;99880.09;5038456;28;20049;-86
2024/02/16 05:37:47;;;;;;;6.40;2.28;;;13.40;99.90;;;13.21;67.10;99867.50;5039418;28;20049;-86
2024/02/16 05:40:24;;;;;;;7.45;2.20;;;13.40;99.90;;;13.23;67.32;99865.44;5039738;28;20080;-86
2024/02/16 05:42:52;;;;;;;6.75;2.50;;;13.40;99.90;;;13.20;67.11;99871.25;5037914;28;20046;-85
2024/02/16 05:45:21;;;;;;;7.80;2.40;;;13.40;99.90;;;13.20;67.16;99867.78;5039596;28;20061;-85
2024/02/16 05:47:51;;;;;;;6.72;2.17;;;13.40;99.90;;;13.20;67.69;99863.22;5037677;28;20136;-85
2024/02/16 05:50:20;;;;;;;5.73;2.20;;;13.40;99.90;;;13.19;67.60;99864.28;5021029;28;20045;-85
2024/02/16 05:52:49;;;;;;;8.80;2.25;;;13.40;99.90;;;13.21;67.61;99862.16;5039584;28;20567;-85
2024/02/16 05:55:18;;;;;;;4.07;2.08;;;13.40;99.90;;;13.19;67.80;99864.28;5037393;28;20037;-85
2024/02/16 05:57:46;;;;;;;6.60;2.20;;;13.30;99.90;;;13.19;67.60;99864.28;5038918;28;20076;-85
2024/02/16 06:00:15;;;;;;;5.45;2.47;;;13.40;99.90;;;13.22;67.68;99863.00;5038485;28;20049;-85
2024/02/16 06:02:43;;;;;;;8.07;2.70;;;13.30;99.90;;;13.18;67.81;99868.03;5038936;28;20467;-85
2024/02/16 06:05:12;;;;;;;8.32;2.30;;;13.30;99.90;;;13.17;67.85;99871.72;5055304;28;20572;-86
2024/02/16 06:07:40;;;;;;;6.35;2.40;;;13.30;99.90;;;13.19;67.64;99874.19;5036916;28;20398;-85
2024/02/16 06:10:11;;;;;;;5.15;2.40;;;13.40;99.90;;;13.18;67.95;99862.66;5037441;28;20045;-86
2024/02/16 06:12:40;;;;;;;8.15;2.50;;;13.40;99.90;;;13.20;68.06;99865.91;5054146;28;20068;-86
2024/02/16 06:15:08;;;;;;;6.38;2.30;;;13.30;99.90;;;13.17;67.89;99863.69;5055665;28;20497;-84
2024/02/16 06:17:36;;;;;;;7.15;2.30;;;13.30;99.90;;;13.20;67.85;99868.56;5024133;28;20041;-84
2024/02/16 06:20:09;;;;;;;8.18;2.30;;;13.30;99.90;;;13.23;67.88;99880.72;5041548;28;20049;-83
2024/02/16 06:22:38;;;;;;;8.95;3.05;;;13.30;99.90;;;13.21;68.01;99872.88;5040247;28;20056;-84
2024/02/16 06:25:06;;;;;;;9.43;2.58;;;13.30;99.90;;;13.19;68.27;99884.91;5042741;28;20114;-84
2024/02/16 06:27:35;;;;;;;6.28;2.47;;;13.30;99.90;;;13.20;68.19;99883.84;5056702;28;20045;-86
2024/02/16 06:30:05;;;;;;;5.70;2.15;;;13.30;99.90;;;13.19;68.05;99876.88;5035112;28;20037;-88
2024/02/16 06:32:32;;;;;;;7.40;2.67;;;13.30;99.90;;;13.21;68.40;99888.13;5034470;28;20050;-88
2024/02/16 06:35:07;;;;;;;8.73;2.67;;;13.30;99.90;;;13.20;68.20;99892.69;4984041;28;20562;-88
2024/02/16 06:37:34;;;;;;;6.50;2.35;;;13.30;99.90;;;13.20;68.24;99886.50;5051334;28;20524;-85
2024/02/16 06:40:04;;;;;;;6.63;2.70;;;13.30;99.90;;;13.20;68.50;99887.31;5054200;28;20045;-87
2024/02/16 06:42:33;;;;;;;7.85;2.83;;;13.30;99.90;;;13.20;68.13;99889.19;5036650;28;20107;-87
2024/02/16 06:45:01;;;;;;;9.63;3.10;;;13.30;99.90;;;13.21;68.25;99883.59;5035443;28;20037;-87
2024/02/16 06:47:29;;;;;;;14.38;4.60;;;13.40;99.90;;;13.22;68.38;99885.22;5034833;28;20050;-87
2024/02/16 06:49:57;;;;;;;9.38;4.15;;;13.40;99.90;;;13.19;68.29;99875.00;5034710;28;20107;-86
2024/02/16 06:52:24;;;;;;;8.55;3.53;;;13.40;99.90;;;13.23;68.41;99881.53;5039968;28;20045;-86
2024/02/16 06:54:53;;;;;;;7.18;2.60;;;13.40;99.90;;;13.22;68.23;99895.94;5039678;28;20476;-86
2024/02/16 06:57:22;;;;;;;7.43;2.55;;;13.40;99.90;;;13.22;68.23;99887.09;5035805;28;20056;-86
2024/02/16 06:59:50;;;;;;;9.93;2.80;;;13.40;99.90;;;13.24;68.55;99891.16;5036485;28;20046;-83
2024/02/16 07:02:17;;;;;;;7.70;2.28;;;13.30;99.90;;;13.25;68.63;99903.50;5054558;28;20119;-83
2024/02/16 07:04:45;;;;;;;6.40;2.63;;;13.30;99.90;;;13.24;68.53;99912.59;5037216;28;20041;-81
2024/02/16 07:07:13;;;;;;;7.45;2.75;;;13.30;99.90;;;13.26;67.94;99910.47;5036185;28;20045;-83
2024/02/16 07:09:42;;;;;;;6.90;2.60;;;13.40;99.90;;;13.27;68.16;99917.44;5036415;28;20056;-82
2024/02/16 07:12:12;;;;;;;8.90;2.42;;;13.40;99.90;;;13.28;68.12;99916.41;5019911;28;20149;-83
2024/02/16 07:14:41;;;;;;;9.23;2.83;;;13.40;99.90;;;13.29;68.18;99927.94;5053559;28;20113;-83
2024/02/16 07:17:09;;;;;;;6.28;2.40;;;13.40;99.90;;;13.30;67.95;99926.88;5054126;28;20398;-83
2024/02/16 07:19:37;;;;;;;7.20;2.38;;;13.40;99.90;;;13.32;67.99;99933.63;5038636;28;20061;-83
2024/02/16 07:22:06;;;;;;;7.13;2.63;;;13.50;99.90;;;13.32;68.04;99941.66;5052574;28;20105;-83
2024/02/16 07:24:34;;;;;;;7.60;2.20;;;13.50;99.90;;;13.36;67.61;99945.47;5038049;28;20488;-83
2024/02/16 07:27:02;;;;;;;7.38;2.38;;;13.50;99.90;;;13.36;67.68;99952.69;5036413;28;20392;-83
2024/02/16 07:29:29;;;;;;;5.57;2.50;;;13.50;99.90;;;13.32;67.74;99944.34;5035869;28;20052;-83
2024/02/16 07:31:58;;;;;;;6.43;2.70;;;13.50;99.90;;;13.35;67.77;99965.28;5037321;28;20073;-84
2024/02/16 07:34:27;;;;;;;7.97;2.63;;;13.50;99.90;;;13.38;67.83;99958.63;5036555;28;20041;-83
2024/02/16 07:36:55;;;;;;;10.70;2.50;;;13.50;99.90;;;13.38;67.79;99956.75;5052896;28;20071;-82
2024/02/16 07:39:23;;;;;;;8.63;2.47;;;13.50;99.90;;;13.38;67.31;99959.44;5051585;28;20069;-82
2024/02/16 07:41:51;;;;;;;7.57;2.55;;;13.60;99.90;;;13.40;67.49;99957.31;5018999;28;20045;-82
2024/02/16 07:44:18;;;;;;;8.63;2.35;;;13.60;99.90;;;13.44;67.29;99964.88;5034384;28;20577;-82
2024/02/16 07:46:46;;;;;;;5.05;2.35;;;13.60;99.90;;;13.46;67.56;99974.28;5034661;28;20053;-82
2024/02/16 07:49:15;;;;;;;9.20;2.67;;;13.60;99.90;;;13.47;67.34;99977.78;5035102;28;20045;-82
2024/02/16 07:51:42;;;;;;;6.38;2.30;;;13.60;99.90;;;13.51;67.53;99970.88;5036370;28;20099;-82
2024/02/16 07:54:10;;;;;;;5.13;2.17;;;13.70;99.90;;;13.54;67.68;99983.81;5034695;28;20511;-82
2024/02/16 07:56:38;;;;;;;5.85;2.60;;;13.60;99.90;;;13.55;67.93;99986.22;5018146;28;20053;-82
2024/02/16 07:59:05;;;;;;;6.30;2.50;;;13.70;99.90;;;13.56;67.71;99987.03;5035005;28;20053;-82
2024/02/16 08:01:33;;;;;;;11.73;2.55;;;13.70;99.90;;;13.56;67.50;99987.84;5035046;28;20042;-82
2024/02/16 08:04:00;;;;;;;6.90;2.40;;;13.70;99.90;;;13.58;67.52;99985.75;5034862;28;20155;-82
2024/02/16 08:06:29;;;;;;;6.95;2.33;;;13.70;99.90;;;13.63;67.13;99987.72;5035207;28;20071;-82
2024/02/16 08:08:57;;;;;;;7.75;2.75;;;13.80;99.90;;;13.63;67.53;99996.56;5034212;28;20505;-82
2024/02/16 08:11:25;;;;;;;5.00;2.30;;;13.80;99.90;;;13.64;67.73;100000.84;5034769;28;20049;-82
2024/02/16 08:13:53;;;;;;;6.93;2.53;;;13.80;99.90;;;13.65;67.31;100004.34;5036005;28;20049;-82
2024/02/16 08:16:20;;;;;;;6.57;2.30;;;13.80;99.90;;;13.69;67.31;100012.72;5035110;28;20042;-82
2024/02/16 08:18:47;;;;;;;6.57;2.97;;;13.80;99.90;;;13.69;67.34;100005.50;5050445;28;20076;-82
2024/02/16 08:21:15;;;;;;;5.65;2.25;;;13.80;99.90;;;13.69;66.99;100005.50;5016620;28;20095;-82
2024/02/16 08:23:44;;;;;;;8.13;2.30;;;13.90;99.90;;;13.71;67.38;100010.59;5039118;28;20056;-82
2024/02/16 08:26:11;;;;;;;7.25;2.83;;;13.90;99.90;;;13.73;67.12;100021.91;5038809;28;20052;-82
2024/02/16 08:28:39;;;;;;;6.75;2.45;;;13.90;99.90;;;13.73;66.82;100019.22;5037335;28;20033;-82
2024/02/16 08:31:07;;;;;;;7.72;3.00;;;13.90;99.90;;;13.75;67.35;100020.59;5037481;28;20145;-82
2024/02/16 08:33:36;;;;;;;13.23;2.80;;;13.90;99.90;;;13.76;67.48;100022.25;5037403;28;20527;-83
2024/02/16 08:36:05;;;;;;;7.70;2.40;;;13.90;99.90;;;13.75;67.84;100033.19;5039259;28;20111;-82
2024/02/16 08:38:33;;;;;;;7.63;2.63;;;13.90;99.90;;;13.74;67.38;100032.38;5039242;28;20117;-82
2024/02/16 08:41:03;;;;;;;5.53;2.40;;;13.90;99.90;;;13.76;67.65;100032.13;5037617;28;20068;-82
2024/02/16 08:43:30;;;;;;;6.65;2.40;;;13.90;99.90;;;13.73;67.43;100021.91;5039335;28;20115;-82
2024/02/16 08:45:58;;;;;;;6.45;3.00;;;13.90;99.90;;;13.73;67.59;100036.13;5038158;28;20054;-82
2024/02/16 08:48:26;;;;;;;8.23;2.83;;;13.90;99.90;;;13.75;67.54;100033.19;5037556;28;20038;-83
2024/02/16 08:50:53;;;;;;;12.15;2.92;;;13.90;99.90;;;13.77;67.46;100037.25;5037303;28;20033;-82
2024/02/16 08:53:21;;;;;;;8.02;2.45;;;13.90;99.90;;;13.80;67.29;100036.75;5054083;28;20080;-82
2024/02/16 08:55:48;;;;;;;7.30;2.28;;;13.90;99.90;;;13.82;67.77;100040.03;5027828;28;20409;-82
2024/02/16 08:58:18;;;;;;;7.28;2.58;;;13.90;99.90;;;13.85;67.56;100038.72;5027128;28;20567;-83
2024/02/16 09:00:45;;;;;;;8.57;2.55;;;14.00;99.90;;;13.85;67.61;100047.56;5037241;28;20049;-83
2024/02/16 09:03:13;;;;;;;8.25;2.88;;;14.00;99.90;;;13.86;67.29;100041.16;5039007;28;20037;-83
2024/02/16 09:05:41;;;;;;;5.30;2.40;;;14.00;99.90;;;13.86;67.52;100046.53;5039484;28;20049;-83
2024/02/16 09:08:09;;;;;;;6.22;2.67;;;14.00;99.90;;;13.87;67.61;100050.00;5038218;28;20099;-83
2024/02/16 09:10:37;;;;;;;6.78;2.88;;;14.00;99.90;;;13.88;67.63;100046.28;5054744;28;20049;-83
2024/02/16 09:13:05;;;;;;;7.78;2.60;;;14.00;99.90;;;13.87;67.68;100053.50;5055538;28;20053;-83
2024/02/16 09:15:34;;;;;;;7.28;2.88;;;14.00;99.90;;;13.86;67.54;100048.41;5040608;28;20148;-83
2024/02/16 09:18:03;;;;;;;8.23;2.60;;;14.10;99.90;;;13.90;67.78;100055.69;5039604;28;20072;-84
2024/02/16 09:20:30;;;;;;;8.68;3.08;;;14.10;99.90;;;13.91;68.21;100054.66;5040009;28;20057;-83
2024/02/16 09:22:58;;;;;;;8.48;2.90;;;14.10;99.90;;;13.94;67.73;100055.22;5038567;28;20071;-83
2024/02/16 09:25:25;;;;;;;9.25;2.75;;;14.10;99.90;;;13.97;68.21;100057.41;5038170;28;20047;-83
2024/02/16 09:27:53;;;;;;;7.00;2.40;;;14.10;99.90;;;13.99;68.53;100060.66;5054274;28;20038;-83
2024/02/16 09:30:21;;;;;;;8.85;2.83;;;14.10;99.90;;;14.00;68.02;100054.22;5054228;28;20045;-83
2024/02/16 09:32:50;;;;;;;7.97;2.60;;;14.20;99.90;;;14.05;68.11;100065.84;5039390;28;20034;-86
2024/02/16 09:35:18;;;;;;;9.75;3.17;;;14.30;99.90;;;14.07;67.72;100066.44;5039987;28;20038;-82
2024/02/16 09:37:46;;;;;;;10.77;3.40;;;14.30;99.90;;;14.11;68.04;100078.28;5037859;28;20107;-82
2024/02/16 09:40:14;;;;;;;8.13;2.47;;;14.30;99.90;;;14.14;68.31;100085.03;5037657;28;20132;-82
2024/02/16 09:42:41;;;;;;;9.90;3.08;;;14.40;99.90;;;14.17;68.38;100089.91;5038116;28;20081;-83
2024/02/16 09:45:11;;;;;;;8.27;2.60;;;14.40;99.90;;;14.18;68.33;100091.53;5040231;28;20397;-83
2024/02/16 09:47:42;;;;;;;6.80;2.42;;;14.40;99.90;;;14.19;67.97;100087.78;5021180;28;20045;-83
2024/02/16 09:50:12;;;;;;;8.25;3.00;;;14.40;99.90;;;14.23;68.61;100091.59;5037391;28;20068;-82
2024/02/16 09:52:41;;;;;;;7.20;2.75;;;14.40;99.90;;;14.25;68.60;100091.34;5017021;28;20421;-82
2024/02/16 09:55:14;;;;;;;8.95;2.72;;;14.50;99.90;;;14.27;67.42;100102.66;5037269;28;20455;-83
2024/02/16 09:57:41;;;;;;;7.18;2.70;;;14.50;99.90;;;14.32;67.41;100103.56;5055192;28;20471;-83
2024/02/16 10:00:10;;;;;;;8.48;3.00;;;14.60;99.90;;;14.36;68.12;100104.69;5038271;28;20469;-82
2024/02/16 10:02:42;;;;;;;12.45;2.90;;;14.60;99.90;;;14.37;68.25;100108.19;5036343;28;20079;-82
2024/02/16 10:05:18;;;;;;;9.38;2.72;;;14.60;99.90;;;14.39;67.27;100114.13;5036043;28;20037;-82
2024/02/16 10:07:47;;;;;;;8.75;3.08;;;14.60;99.90;;;14.41;67.97;100117.38;5019128;28;20049;-82
2024/02/16 10:10:23;;;;;;;6.95;2.63;;;14.60;99.90;;;14.41;67.99;100118.19;5038206;28;20042;-82
2024/02/16 10:12:51;;;;;;;10.52;3.33;;;14.70;99.90;;;14.42;68.10;100119.81;5038702;28;20038;-82
2024/02/16 10:15:23;;;;;;;9.75;3.00;;;14.70;99.90;;;14.39;67.97;100120.28;5052270;28;20052;-82
2024/02/16 10:18:00;;;;;;;9.35;3.33;;;14.70;99.90;;;14.38;67.71;100126.72;5052277;28;20046;-82
2024/02/16 10:20:33;;;;;;;8.18;3.05;;;14.60;99.90;;;14.37;67.81;100130.47;5036754;28;20038;-82
2024/02/16 10:23:10;;;;;;;8.55;2.90;;;14.60;99.90;;;14.37;68.31;100132.34;5035227;28;20049;-82